createdAt,value
2023-03-06T00:00:21.160Z,101153.44
2023-03-06T00:02:52.145Z,101152.56
2023-03-06T00:05:21.137Z,101146.56
2023-03-06T00:07:49.296Z,101143.03
2023-03-06T00:10:19.153Z,101137.81
2023-03-06T00:12:47.493Z,101130.81
2023-03-06T00:15:18.578Z,101123.81
2023-03-06T00:17:47.820Z,101126.25
2023-03-06T00:20:17.997Z,101127.06
2023-03-06T00:22:45.721Z,101115.13
2023-03-06T00:25:15.291Z,101115.00
2023-03-06T00:27:43.384Z,101119.84
2023-03-06T00:30:14.098Z,101115.22
2023-03-06T00:32:42.410Z,101109.97
2023-03-06T00:35:11.268Z,101105.66
2023-03-06T00:37:41.426Z,101107.47
2023-03-06T00:40:15.174Z,101102.53
2023-03-06T00:42:43.355Z,101100.91
2023-03-06T00:45:12.423Z,101101.03
2023-03-06T00:47:40.486Z,101095.94
2023-03-06T00:50:10.212Z,101093.31
2023-03-06T00:52:38.284Z,101088.91
2023-03-06T00:55:08.923Z,101093.09
2023-03-06T00:57:37.184Z,101087.91
2023-03-06T01:00:06.953Z,101086.22
2023-03-06T01:02:35.143Z,101087.03
2023-03-06T01:05:03.374Z,101087.91
2023-03-06T01:07:34.083Z,101082.75
2023-03-06T01:10:02.060Z,101075.03
2023-03-06T01:12:31.526Z,101077.66
2023-03-06T01:14:59.669Z,101068.16
2023-03-06T01:17:27.776Z,101069.03
2023-03-06T01:19:55.775Z,101069.91
2023-03-06T01:22:24.252Z,101059.53
2023-03-06T01:24:52.251Z,101057.78
2023-03-06T01:27:20.278Z,101052.53
2023-03-06T01:29:49.732Z,101052.28
2023-03-06T01:32:17.738Z,101053.81
2023-03-06T01:34:45.747Z,101049.25
2023-03-06T01:37:13.913Z,101048.25
2023-03-06T01:39:41.983Z,101035.97
2023-03-06T01:42:10.293Z,101039.28
2023-03-06T01:44:38.380Z,101034.97
2023-03-06T01:47:07.826Z,101035.88
2023-03-06T01:49:39.233Z,101035.06
2023-03-06T01:52:10.228Z,101029.81
2023-03-06T01:54:43.176Z,101025.44
2023-03-06T01:57:14.707Z,101023.81
2023-03-06T01:59:43.967Z,101022.16
2023-03-06T02:02:15.018Z,101015.56
2023-03-06T02:04:44.302Z,101016.66
2023-03-06T02:07:13.068Z,101015.19
2023-03-06T02:09:41.314Z,101006.69
2023-03-06T02:12:12.277Z,101012.00
2023-03-06T02:14:41.346Z,101008.53
2023-03-06T02:17:12.042Z,101003.41
2023-03-06T02:19:53.149Z,100996.66
2023-03-06T02:22:21.943Z,100992.41
2023-03-06T02:24:55.472Z,100989.84
2023-03-06T02:27:26.386Z,100990.78
2023-03-06T02:29:54.437Z,100982.28
2023-03-06T02:32:22.536Z,100986.66
2023-03-06T02:34:59.111Z,100984.03
2023-03-06T02:37:29.314Z,100983.22
2023-03-06T02:40:04.115Z,100979.78
2023-03-06T02:42:33.526Z,100972.03
2023-03-06T02:45:03.554Z,100962.41
2023-03-06T02:47:31.635Z,100964.94
2023-03-06T02:50:00.196Z,100962.31
2023-03-06T02:52:28.205Z,100964.03
2023-03-06T02:54:56.199Z,100951.19
2023-03-06T02:57:24.240Z,100954.56
2023-03-06T02:59:53.864Z,100945.88
2023-03-06T03:02:22.175Z,100942.38
2023-03-06T03:04:50.296Z,100941.56
2023-03-06T03:07:18.513Z,100945.81
2023-03-06T03:09:46.549Z,100938.94
2023-03-06T03:12:14.616Z,100944.06
2023-03-06T03:14:42.624Z,100938.94
2023-03-06T03:17:11.965Z,100939.00
2023-03-06T03:19:39.939Z,100930.44
2023-03-06T03:22:08.318Z,100931.31
2023-03-06T03:24:36.519Z,100933.16
2023-03-06T03:27:04.819Z,100927.19
2023-03-06T03:29:32.900Z,100922.22
2023-03-06T03:32:01.165Z,100917.19
2023-03-06T03:34:33.075Z,100915.44
2023-03-06T03:37:01.159Z,100908.56
2023-03-06T03:39:29.312Z,100906.81
2023-03-06T03:41:57.348Z,100897.31
2023-03-06T03:44:25.384Z,100900.69
2023-03-06T03:46:53.443Z,100897.97
2023-03-06T03:49:21.542Z,100890.84
2023-03-06T03:51:51.012Z,100890.56
2023-03-06T03:54:19.164Z,100883.44
2023-03-06T03:56:47.374Z,100884.16
2023-03-06T03:59:16.744Z,100879.63
2023-03-06T04:01:45.994Z,100879.97
2023-03-06T04:04:14.083Z,100877.19
2023-03-06T04:06:42.605Z,100877.09
2023-03-06T04:09:12.023Z,100872.81
2023-03-06T04:11:40.085Z,100871.06
2023-03-06T04:14:11.487Z,100870.22
2023-03-06T04:16:39.500Z,100866.72
2023-03-06T04:19:07.539Z,100863.19
2023-03-06T04:21:35.563Z,100860.53
2023-03-06T04:24:03.618Z,100862.03
2023-03-06T04:26:33.072Z,100854.88
2023-03-06T04:29:01.093Z,100853.72
2023-03-06T04:31:29.229Z,100849.19
2023-03-06T04:33:57.332Z,100845.47
2023-03-06T04:36:29.619Z,100846.84
2023-03-06T04:38:58.248Z,100845.00
2023-03-06T04:41:27.650Z,100844.00
2023-03-06T04:43:59.622Z,100842.09
2023-03-06T04:46:29.234Z,100837.00
2023-03-06T04:48:57.315Z,100838.69
2023-03-06T04:51:25.452Z,100833.47
2023-03-06T04:53:53.492Z,100831.72
2023-03-06T04:56:21.498Z,100829.06
2023-03-06T04:58:49.544Z,100833.22
2023-03-06T05:01:19.009Z,100831.44
2023-03-06T05:03:47.070Z,100834.72
2023-03-06T05:06:15.116Z,100833.03
2023-03-06T05:08:43.389Z,100832.22
2023-03-06T05:11:11.389Z,100828.81
2023-03-06T05:13:39.446Z,100829.69
2023-03-06T05:16:09.008Z,100821.94
2023-03-06T05:18:38.859Z,100820.19
2023-03-06T05:21:07.328Z,100821.81
2023-03-06T05:23:38.545Z,100816.69
2023-03-06T05:26:09.247Z,100824.63
2023-03-06T05:28:38.375Z,100824.06
2023-03-06T05:31:07.450Z,100821.78
2023-03-06T05:33:36.304Z,100822.69
2023-03-06T05:36:06.480Z,100815.03
2023-03-06T05:38:34.199Z,100815.59
2023-03-06T05:41:02.202Z,100808.41
2023-03-06T05:43:30.192Z,100800.31
2023-03-06T05:46:05.554Z,100803.31
2023-03-06T05:48:34.348Z,100804.81
2023-03-06T05:51:03.646Z,100813.09
2023-03-06T05:53:33.852Z,100810.34
2023-03-06T05:56:03.946Z,100797.38
2023-03-06T05:58:33.479Z,100810.09
2023-03-06T06:01:01.857Z,100812.53
2023-03-06T06:03:29.932Z,100818.66
2023-03-06T06:05:57.971Z,100806.22
2023-03-06T06:08:26.238Z,100797.81
2023-03-06T06:10:55.636Z,100790.09
2023-03-06T06:13:23.748Z,100796.00
2023-03-06T06:15:52.117Z,100786.41
2023-03-06T06:18:20.146Z,100779.34
2023-03-06T06:20:48.277Z,100780.88
2023-03-06T06:23:16.681Z,100776.56
2023-03-06T06:25:44.708Z,100776.66
2023-03-06T06:28:14.110Z,100769.81
2023-03-06T06:30:42.161Z,100760.34
2023-03-06T06:33:10.189Z,100755.13
2023-03-06T06:35:38.310Z,100753.47
2023-03-06T06:38:06.348Z,100744.00
2023-03-06T06:40:34.410Z,100749.97
2023-03-06T06:43:02.458Z,100746.47
2023-03-06T06:45:31.856Z,100749.78
2023-03-06T06:48:00.053Z,100746.22
2023-03-06T06:50:28.085Z,100747.91
2023-03-06T06:52:56.142Z,100741.84
2023-03-06T06:55:24.251Z,100740.09
2023-03-06T06:57:54.926Z,100743.47
2023-03-06T07:00:24.005Z,100739.97
2023-03-06T07:02:53.368Z,100736.50
2023-03-06T07:05:22.179Z,100737.28
2023-03-06T07:07:51.455Z,100742.47
2023-03-06T07:10:21.021Z,100736.50
2023-03-06T07:12:49.445Z,100734.84
2023-03-06T07:15:19.143Z,100732.38
2023-03-06T07:17:49.569Z,100732.44
2023-03-06T07:20:20.514Z,100723.19
2023-03-06T07:22:51.606Z,100724.22
2023-03-06T07:25:22.604Z,100718.47
2023-03-06T07:27:54.517Z,100720.31
2023-03-06T07:30:23.476Z,100713.75
2023-03-06T07:32:54.836Z,100719.97
2023-03-06T07:35:24.992Z,100715.19
2023-03-06T07:37:52.987Z,100712.06
2023-03-06T07:40:21.877Z,100711.56
2023-03-06T07:42:50.018Z,100704.91
2023-03-06T07:45:18.316Z,100706.09
2023-03-06T07:47:46.866Z,100701.16
2023-03-06T07:50:15.114Z,100707.38
2023-03-06T07:52:44.505Z,100700.91
2023-03-06T07:55:13.553Z,100701.13
2023-03-06T07:57:41.854Z,100706.50
2023-03-06T08:00:13.798Z,100697.25
2023-03-06T08:02:43.279Z,100703.38
2023-03-06T08:05:15.147Z,100693.22
2023-03-06T08:07:45.317Z,100686.63
2023-03-06T08:10:14.703Z,100686.81
2023-03-06T08:12:42.992Z,100695.47
2023-03-06T08:15:12.493Z,100697.31
2023-03-06T08:17:40.973Z,100693.19
2023-03-06T08:20:11.509Z,100684.81
2023-03-06T08:22:40.593Z,100685.03
2023-03-06T08:25:11.669Z,100683.53
2023-03-06T08:27:41.155Z,100673.56
2023-03-06T08:30:10.743Z,100684.84
2023-03-06T08:32:39.349Z,100681.56
2023-03-06T08:35:08.463Z,100682.59
2023-03-06T08:37:36.985Z,100672.44
2023-03-06T08:40:05.640Z,100669.31
2023-03-06T08:42:35.260Z,100666.38
2023-03-06T08:45:03.430Z,100673.50
2023-03-06T08:47:34.199Z,100679.88
2023-03-06T08:50:02.534Z,100671.72
2023-03-06T08:52:30.697Z,100673.81
2023-03-06T08:55:03.475Z,100676.72
2023-03-06T08:57:31.662Z,100670.03
2023-03-06T09:00:01.131Z,100672.56
2023-03-06T09:02:29.305Z,100668.28
2023-03-06T09:05:01.391Z,100661.50
2023-03-06T09:07:30.712Z,100659.94
2023-03-06T09:09:59.624Z,100670.44
2023-03-06T09:12:29.258Z,100673.34
2023-03-06T09:15:00.249Z,100676.34
2023-03-06T09:17:29.972Z,100666.38
2023-03-06T09:19:58.005Z,100655.50
2023-03-06T09:22:26.084Z,100664.34
2023-03-06T09:24:57.795Z,100667.38
2023-03-06T09:27:27.777Z,100654.66
2023-03-06T09:29:55.858Z,100654.09
2023-03-06T09:32:27.461Z,100655.09
2023-03-06T09:34:55.647Z,100658.06
2023-03-06T09:37:24.985Z,100661.22
2023-03-06T09:39:53.126Z,100654.69
2023-03-06T09:42:25.706Z,100656.56
2023-03-06T09:44:59.615Z,100654.91
2023-03-06T09:47:46.949Z,100649.97
2023-03-06T09:50:25.169Z,100647.56
2023-03-06T09:53:16.363Z,100646.94
2023-03-06T09:55:50.227Z,100649.47
2023-03-06T09:58:22.419Z,100645.22
2023-03-06T10:00:58.702Z,100648.50
2023-03-06T10:03:32.663Z,100641.63
2023-03-06T10:07:16.092Z,100644.44
2023-03-06T10:09:54.402Z,100635.41
2023-03-06T10:12:27.082Z,100628.88
2023-03-06T10:15:04.170Z,100635.81
2023-03-06T10:17:42.313Z,100637.75
2023-03-06T10:20:26.009Z,100628.44
2023-03-06T10:23:06.824Z,100628.44
2023-03-06T10:25:41.636Z,100629.38
2023-03-06T10:28:18.268Z,100630.06
2023-03-06T10:30:58.425Z,100635.00
2023-03-06T10:33:32.950Z,100627.22
2023-03-06T10:36:06.718Z,100625.41
2023-03-06T10:44:50.209Z,100624.38
2023-03-06T10:47:44.216Z,100624.47
2023-03-06T10:50:44.700Z,100620.16
2023-03-06T10:53:35.802Z,100624.38
2023-03-06T10:56:15.572Z,100625.88
2023-03-06T10:59:15.369Z,100619.56
2023-03-06T11:01:59.046Z,100622.13
2023-03-06T11:05:11.082Z,100621.19
2023-03-06T11:08:09.434Z,100619.50
2023-03-06T11:10:45.867Z,100609.84
2023-03-06T11:13:37.559Z,100607.03
2023-03-06T11:19:24.354Z,100608.91
2023-03-06T11:22:06.103Z,100614.41
2023-03-06T11:24:43.442Z,100601.88
2023-03-06T11:27:25.123Z,100607.50
2023-03-06T11:29:56.408Z,100598.38
2023-03-06T11:32:29.134Z,100595.34
2023-03-06T11:35:01.310Z,100589.66
2023-03-06T11:37:44.372Z,100584.97
2023-03-06T11:40:19.449Z,100579.78
2023-03-06T11:42:57.999Z,100581.41
2023-03-06T11:45:32.235Z,100586.41
2023-03-06T11:48:11.464Z,100585.50
2023-03-06T11:50:43.750Z,100585.47
2023-03-06T11:53:16.139Z,100578.75
2023-03-06T11:56:33.242Z,100571.09
2023-03-06T11:59:45.883Z,100589.38
2023-03-06T12:06:04.098Z,100571.94
2023-03-06T12:08:53.774Z,100566.75
2023-03-06T12:11:46.817Z,100575.44
2023-03-06T12:14:45.203Z,100573.69
2023-03-06T12:17:37.787Z,100558.13
2023-03-06T12:20:50.518Z,100572.03
2023-03-06T12:27:21.614Z,100557.41
2023-03-06T12:30:10.685Z,100552.19
2023-03-06T12:32:57.784Z,100552.84
2023-03-06T12:36:19.906Z,100543.25
2023-03-06T12:39:11.751Z,100550.66
2023-03-06T12:41:49.616Z,100546.50
2023-03-06T12:45:06.142Z,100558.59
2023-03-06T12:47:49.670Z,100559.03
2023-03-06T12:50:30.313Z,100552.00
2023-03-06T12:53:07.782Z,100545.00
2023-03-06T12:55:41.963Z,100543.25
2023-03-06T12:58:36.161Z,100539.38
2023-03-06T13:01:10.639Z,100534.47
2023-03-06T13:04:03.265Z,100540.59
2023-03-06T13:06:55.099Z,100538.59
2023-03-06T13:09:53.896Z,100532.53
2023-03-06T13:12:56.192Z,100538.16
2023-03-06T13:15:50.672Z,100522.41
2023-03-06T13:19:03.818Z,100525.56
2023-03-06T13:22:17.643Z,100513.63
2023-03-06T13:29:08.156Z,100507.41
2023-03-06T13:32:08.876Z,100497.09
2023-03-06T13:34:39.429Z,100493.69
2023-03-06T13:37:40.464Z,100485.69
2023-03-06T13:40:16.437Z,100482.16
2023-03-06T13:43:05.036Z,100474.22
2023-03-06T13:45:42.059Z,100464.91
2023-03-06T13:48:45.146Z,100471.63
2023-03-06T13:51:25.658Z,100459.63
2023-03-06T13:54:22.085Z,100462.06
2023-03-06T13:57:24.334Z,100469.78
2023-03-06T14:00:25.564Z,100466.41
2023-03-06T14:03:40.481Z,100446.81
2023-03-06T14:07:17.887Z,100456.25
2023-03-06T14:10:38.996Z,100451.56
2023-03-06T14:13:19.643Z,100446.47
2023-03-06T14:16:50.914Z,100446.66
2023-03-06T14:19:29.708Z,100440.03
2023-03-06T14:22:07.401Z,100439.41
2023-03-06T14:25:04.458Z,100432.75
2023-03-06T14:28:12.517Z,100428.47
2023-03-06T14:30:55.010Z,100424.84
2023-03-06T14:33:31.190Z,100427.41
2023-03-06T14:36:02.660Z,100414.66
2023-03-06T14:38:35.851Z,100417.94
2023-03-06T14:41:06.382Z,100423.78
2023-03-06T14:43:36.301Z,100419.22
2023-03-06T14:46:07.004Z,100426.72
2023-03-06T14:48:41.875Z,100421.44
2023-03-06T14:51:18.425Z,100416.00
2023-03-06T14:53:48.718Z,100421.19
2023-03-06T14:56:18.180Z,100419.47
2023-03-06T14:58:55.418Z,100414.31
2023-03-06T15:01:31.170Z,100419.63
2023-03-06T15:04:01.750Z,100413.34
2023-03-06T15:06:36.205Z,100416.28
2023-03-06T15:09:10.381Z,100409.16
2023-03-06T15:11:56.647Z,100401.28
2023-03-06T15:14:33.390Z,100401.38
2023-03-06T15:21:36.499Z,100397.22
2023-03-06T15:24:33.942Z,100394.66
2023-03-06T15:27:04.375Z,100391.31
2023-03-06T15:29:37.729Z,100386.34
2023-03-06T15:32:17.934Z,100384.03
2023-03-06T15:34:46.167Z,100387.53
2023-03-06T15:37:28.736Z,100394.69
2023-03-06T15:40:09.609Z,100386.34
2023-03-06T15:42:38.360Z,100375.06
2023-03-06T15:45:20.299Z,100377.53
2023-03-06T15:47:50.360Z,100369.03
2023-03-06T15:50:20.663Z,100371.56
2023-03-06T15:52:50.324Z,100377.44
2023-03-06T15:55:20.597Z,100368.78
2023-03-06T15:57:52.597Z,100365.97
2023-03-06T16:00:28.200Z,100363.50
2023-03-06T16:02:57.370Z,100361.72
2023-03-06T16:05:27.923Z,100355.56
2023-03-06T16:08:04.348Z,100362.91
2023-03-06T16:10:37.138Z,100356.72
2023-03-06T16:14:28.298Z,100358.19
2023-03-06T16:17:09.104Z,100345.00
2023-03-06T16:23:01.682Z,100342.25
2023-03-06T16:25:42.007Z,100343.06
2023-03-06T16:34:39.878Z,100344.69
2023-03-06T16:37:10.436Z,100339.34
2023-03-06T16:39:38.545Z,100339.16
2023-03-06T16:42:06.945Z,100342.63
2023-03-06T16:44:35.289Z,100346.81
2023-03-06T16:47:04.351Z,100339.94
2023-03-06T16:49:33.574Z,100340.88
2023-03-06T16:52:05.107Z,100331.44
2023-03-06T16:54:33.301Z,100334.91
2023-03-06T16:57:01.413Z,100335.47
2023-03-06T16:59:29.815Z,100338.69
2023-03-06T17:01:58.125Z,100337.88
2023-03-06T17:04:26.296Z,100338.63
2023-03-06T17:06:54.721Z,100341.03
2023-03-06T17:09:24.398Z,100342.56
2023-03-06T17:11:52.548Z,100342.41
2023-03-06T17:14:20.813Z,100341.56
2023-03-06T17:16:48.956Z,100337.22
2023-03-06T17:19:17.033Z,100339.78
2023-03-06T17:22:46.650Z,100336.31
2023-03-06T17:26:12.694Z,100339.69
2023-03-06T17:28:52.810Z,100339.91
2023-03-06T17:31:44.049Z,100341.56
2023-03-06T17:34:19.332Z,100341.28
2023-03-06T17:36:55.742Z,100350.25
2023-03-06T17:39:24.492Z,100352.59
2023-03-06T17:41:54.080Z,100354.25
2023-03-06T17:44:22.578Z,100350.06
2023-03-06T17:46:51.313Z,100348.44
2023-03-06T17:49:22.401Z,100349.28
2023-03-06T17:51:50.845Z,100339.22
2023-03-06T17:54:19.331Z,100341.06
2023-03-06T17:56:54.791Z,100334.22
2023-03-06T17:59:23.368Z,100337.59
2023-03-06T18:01:54.111Z,100346.13
2023-03-06T18:04:22.273Z,100341.06
2023-03-06T18:07:13.603Z,100341.66
2023-03-06T18:09:45.443Z,100356.03
2023-03-06T18:12:20.277Z,100347.34
2023-03-06T18:14:56.289Z,100349.75
2023-03-06T18:17:59.431Z,100346.28
2023-03-06T18:20:29.981Z,100347.94
2023-03-06T18:23:09.299Z,100346.13
2023-03-06T18:25:47.780Z,100346.84
2023-03-06T18:28:23.446Z,100352.59
2023-03-06T18:30:51.642Z,100351.84
2023-03-06T18:33:20.329Z,100353.38
2023-03-06T18:35:53.358Z,100351.53
2023-03-06T18:41:12.435Z,100347.28
2023-03-06T18:43:42.843Z,100349.03
2023-03-06T18:46:11.701Z,100354.16
2023-03-06T18:48:40.052Z,100350.66
2023-03-06T18:51:15.033Z,100350.63
2023-03-06T18:53:48.834Z,100347.81
2023-03-06T18:56:57.497Z,100351.97
2023-03-06T18:59:29.588Z,100346.81
2023-03-06T19:01:59.407Z,100344.78
2023-03-06T19:04:36.560Z,100352.41
2023-03-06T19:07:06.554Z,100360.78
2023-03-06T19:09:41.248Z,100351.22
2023-03-06T19:12:15.350Z,100351.91
2023-03-06T19:14:46.774Z,100355.00
2023-03-06T19:17:14.965Z,100352.28
2023-03-06T19:19:52.606Z,100355.44
2023-03-06T19:22:34.825Z,100347.53
2023-03-06T19:25:05.490Z,100347.19
2023-03-06T19:27:38.037Z,100350.38
2023-03-06T19:30:18.790Z,100345.88
2023-03-06T19:32:48.046Z,100344.97
2023-03-06T19:35:16.372Z,100333.16
2023-03-06T19:37:44.819Z,100336.50
2023-03-06T19:40:13.772Z,100337.44
2023-03-06T19:42:41.989Z,100329.78
2023-03-06T19:45:12.734Z,100335.81
2023-03-06T19:47:40.987Z,100332.50
2023-03-06T19:50:10.885Z,100338.59
2023-03-06T19:52:39.675Z,100337.03
2023-03-06T19:55:09.839Z,100331.94
2023-03-06T19:57:37.812Z,100333.72
2023-03-06T20:00:25.757Z,100335.47
2023-03-06T20:02:55.053Z,100337.25
2023-03-06T20:05:37.459Z,100343.34
2023-03-06T20:08:06.056Z,100339.97
2023-03-06T20:10:46.534Z,100334.88
2023-03-06T20:13:15.000Z,100334.78
2023-03-06T20:15:44.721Z,100335.59
2023-03-06T20:18:15.790Z,100325.94
2023-03-06T20:20:44.184Z,100337.78
2023-03-06T20:23:34.703Z,100334.31
2023-03-06T20:26:15.089Z,100320.50
2023-03-06T20:28:46.363Z,100336.69
2023-03-06T20:31:18.774Z,100328.00
2023-03-06T20:33:51.169Z,100315.97
2023-03-06T20:36:21.921Z,100321.00
2023-03-06T20:39:03.824Z,100321.94
2023-03-06T20:41:33.556Z,100319.34
2023-03-06T20:44:03.453Z,100321.16
2023-03-06T20:46:33.871Z,100321.06
2023-03-06T20:49:02.688Z,100324.50
2023-03-06T20:51:33.194Z,100329.72
2023-03-06T20:54:02.708Z,100325.50
2023-03-06T20:56:33.142Z,100325.50
2023-03-06T20:59:02.026Z,100324.72
2023-03-06T21:01:33.546Z,100310.94
2023-03-06T21:04:05.437Z,100315.16
2023-03-06T21:06:34.395Z,100316.91
2023-03-06T21:09:03.883Z,100310.84
2023-03-06T21:11:32.333Z,100320.25
2023-03-06T21:14:01.061Z,100311.69
2023-03-06T21:16:30.437Z,100309.81
2023-03-06T21:19:02.008Z,100311.50
2023-03-06T21:21:32.972Z,100319.22
2023-03-06T21:24:01.891Z,100313.09
2023-03-06T21:26:33.937Z,100320.75
2023-03-06T21:29:02.954Z,100321.56
2023-03-06T21:31:33.568Z,100319.81
2023-03-06T21:34:05.042Z,100318.06
2023-03-06T21:36:33.596Z,100319.69
2023-03-06T21:39:02.354Z,100318.75
2023-03-06T21:41:32.482Z,100313.59
2023-03-06T21:44:01.305Z,100323.00
2023-03-06T21:46:29.778Z,100314.22
2023-03-06T21:48:58.758Z,100312.38
2023-03-06T21:51:29.384Z,100322.63
2023-03-06T21:53:57.793Z,100313.97
2023-03-06T21:56:28.570Z,100317.25
2023-03-06T21:58:58.416Z,100316.41
2023-03-06T22:01:29.045Z,100315.50
2023-03-06T22:03:58.972Z,100318.97
2023-03-06T22:06:32.769Z,100327.31
2023-03-06T22:09:02.550Z,100313.63
2023-03-06T22:11:34.590Z,100321.22
2023-03-06T22:14:03.152Z,100321.28
2023-03-06T22:16:31.936Z,100320.28
2023-03-06T22:19:00.843Z,100321.84
2023-03-06T22:21:29.143Z,100307.41
2023-03-06T22:23:59.926Z,100312.31
2023-03-06T22:26:29.062Z,100308.78
2023-03-06T22:28:57.764Z,100315.63
2023-03-06T22:31:28.592Z,100311.28
2023-03-06T22:33:59.871Z,100315.44
2023-03-06T22:36:30.429Z,100318.00
2023-03-06T22:39:02.182Z,100317.09
2023-03-06T22:41:30.534Z,100311.03
2023-03-06T22:43:59.828Z,100312.84
2023-03-06T22:46:28.437Z,100307.69
2023-03-06T22:48:57.736Z,100318.00
2023-03-06T22:51:26.302Z,100308.59
2023-03-06T22:53:54.698Z,100319.72
2023-03-06T22:56:24.719Z,100313.69
2023-03-06T22:58:52.998Z,100306.78
2023-03-06T23:01:23.527Z,100310.16
2023-03-06T23:03:54.657Z,100308.50
2023-03-06T23:06:25.177Z,100302.44
2023-03-06T23:08:55.404Z,100307.56
2023-03-06T23:11:27.915Z,100308.44
2023-03-06T23:13:56.592Z,100308.31
2023-03-06T23:16:25.526Z,100310.81
2023-03-06T23:18:54.582Z,100321.09
2023-03-06T23:21:24.452Z,100309.91
2023-03-06T23:23:54.263Z,100309.72
2023-03-06T23:26:26.002Z,100305.44
2023-03-06T23:28:54.673Z,100302.06
2023-03-06T23:31:28.692Z,100310.53
2023-03-06T23:33:59.138Z,100305.44
2023-03-06T23:36:27.538Z,100307.94
2023-03-06T23:38:56.384Z,100314.72
2023-03-06T23:41:26.617Z,100300.16
2023-03-06T23:43:55.419Z,100307.75
2023-03-06T23:46:23.800Z,100310.34
2023-03-06T23:48:52.418Z,100297.53
2023-03-06T23:51:22.671Z,100305.06
2023-03-06T23:53:56.692Z,100305.88
2023-03-06T23:56:27.946Z,100304.19
2023-03-06T23:58:56.856Z,100297.97
